Melville, NY (11747)

3:13 AM EDT on March 27, 2015 (GMT -0400)
The Woods | | Change Station
CLOSE
Current Station
Personal Weather Station
Location: Melville, NY
Elevation: 151 ft
Nearby Weather Stations

Elev 151 ft 40.80 °N, 73.41 °W | Updated 9 minutes ago

Rain
Rain
41.0 °F
Feels Like 38 °F
N
4.2
Wind Variable Wind from ENE

Today
High -- | Low -- °F
--% Chance of Precip.
Yesterday
High -- | Low -- °F
Precip. -- in
6:45 AM 7:12 PM
Waxing Crescent, 50% visible
Pressure 29.68 in
Visibility 10.0 miles
Clouds Few 3600 ft
Few 7500 ft
Overcast 9000 ft
Windchill 38 °F
Dew Point 41 °F
Humidity 99%
Rainfall 0.05 in
Snow Depth Not available.
UV 0 out of 12
Pollen 2.90 out of 12
Air Quality Not available.
Flu Activity Not available.
METAR KFRG 270653Z AUTO 35008KT 10SM -RA FEW036 FEW075 OVC090 06/04 A2968 RMK AO2 RAE14B37 SLP051 P0000 T00610039

More Conditions Fewer Conditions

Pressure 29.68 in
Visibility 10.0 miles
Clouds Few 3600 ft
Few 7500 ft
Overcast 9000 ft
Windchill 38 °F
Dew Point 41 °F
Humidity 99%
Rainfall 0.05 in
Snow Depth Not available.
UV 0 out of 12
Pollen 2.90 out of 12
Air Quality Not available.
Flu Activity Not available.
METAR KFRG 270653Z AUTO 35008KT 10SM -RA FEW036 FEW075 OVC090 06/04 A2968 RMK AO2 RAE14B37 SLP051 P0000 T00610039

More Conditions Fewer Conditions

10-Day Weather Forecast

Almanac

Astronomy

Mar. 27, 2015 Rise Set
Actual Time
Civil Twilight
Nautical Twilight
Astronomical Twilight
Moon
Length of Visible Light
Length of Day
Tomorrow will be .
, % of the Moon is Illuminated

Today's Extremes

State Highs State Lows

Community

WunderPhotos

Upload Photos

1,808,701 photos uploaded!

WunderBlogs® & News

Nearby

Air Quality

  Air Quality AQ Index Pollutant
Not available.

Snow Depth

Station Depth Elevation

Earthquake Activity

City Distance Mag. Time & Date
Minimum magnitude displayed is 2.5.

Coastal Water Temperatures

Place Temperature

Stations

Nearby Weather Stations

Station Location Temp. Windchill Dew Point Humidity Wind Precip. Elev Updated Type